Montour, IA (50173)

7:59 PM CDT en Marzo 29, 2017 (GMT -0500)
Vine Street | | Change Station

Alt 870 ft 41.99 °N, 92.57 °W | Updated 16 seconds ago

Nublado
Nublado
40.8 ° F
Sensación térmica 31 ° F
N
22.2
Viento Variable Viento desde Este

Hoy
Alta -- | Baja -- ° F
--% Posibilidad de precipitaciones
Ayer
Alta -- | Baja -- ° F
Precip. -- pul
Presión 29.95 pul
Visibilidad 5.0 Millas
Nubes Muy nublado 900 ft
Nublado 1500 ft
Vientos helados 31 ° F
Punto de rocío 40 ° F
Humedad 99%
Precipitaciones 0.51 pul
Espesor de la nieve No disponible.
6:58 AM 7:33 PM
Creciente, 5% visible
METAR KMIW 300053Z AUTO 07026G33KT 5SM BR BKN009 OVC015 05/04 A2993 RMK AO2 PK WND 08033/0037 RAE51 SLP141 P0001 T00500044
Presión 29.95 pul
Visibilidad 5.0 Millas
Nubes Muy nublado 900 ft
Nublado 1500 ft
Vientos helados 31 ° F
Punto de rocío 40 ° F
Humedad 99%
Precipitaciones 0.51 pul
Espesor de la nieve No disponible.
6:58 AM 7:33 PM
Creciente, 5% visible
METAR KMIW 300053Z AUTO 07026G33KT 5SM BR BKN009 OVC015 05/04 A2993 RMK AO2 PK WND 08033/0037 RAE51 SLP141 P0001 T00500044

Get Severe Weather Alerts

Thanks for signing up!

Be on the lookout for a verification email in your inbox.

You'll start receiving the daily forecast at 8 AM.

×

10-Day Weather Forecast

Almanac

Astronomía

Mar. 29, 2017 Salida Puesta
Hora real
Crepúsculo civil
Crepúsculo náutico
Crepúsculo astronómico
Luna
Horas de luz
Horas de luz
Tomorrow will be .
, % of the Moon is Illuminated

Extremos de hoy

Máximos del estado Bajos del estado

Community

WunderPhotos

Upload Photos

1,962,540 ¡fotos cargadas!

WunderBlog® & News

Nearby

Calidad del aire

  Calidad del aire Índice AQ Contaminante
Not available.

Grosos de nieve

Estación Profundido Altura

Actividad de terremotos

Ciudad Distance Mag. Tiempo y dato
Magnitud mínima muestra es 2,5.

Actividad de terremotos

Ciudad Distance Mag. Tiempo y dato
Magnitud mínima muestra es 2,5.

Temperaturas de aguas costeras

Lugar Temperatura

Stations

Estaciones meteorológicas cercanas

Ubicación de la estación Temp. Vientos helados Punto de rocío Humedad Viento Precip. Alt Actualizado Tipo
                   

Watches & Warnings

There are currently no watches in effect.